sensor_id;sensor_type;location;lat;lon;timestamp;temperature;humidity
19878;DHT22;10101;52.204;9.910;2022-08-05T00:01:21;21.00;99.90
19878;DHT22;10101;52.204;9.910;2022-08-05T00:03:49;21.00;99.90
19878;DHT22;10101;52.204;9.910;2022-08-05T00:06:17;20.90;99.90
19878;DHT22;10101;52.204;9.910;2022-08-05T00:08:44;20.90;99.90
19878;DHT22;10101;52.204;9.910;2022-08-05T00:11:13;20.90;99.90
19878;DHT22;10101;52.204;9.910;2022-08-05T00:13:41;20.90;99.90
19878;DHT22;10101;52.204;9.910;2022-08-05T00:16:13;20.90;99.90
19878;DHT22;10101;52.204;9.910;2022-08-05T00:18:42;20.90;99.90
19878;DHT22;10101;52.204;9.910;2022-08-05T00:21:10;20.80;99.90
19878;DHT22;10101;52.204;9.910;2022-08-05T00:23:38;20.80;99.90
19878;DHT22;10101;52.204;9.910;2022-08-05T00:26:05;20.70;99.90
19878;DHT22;10101;52.204;9.910;2022-08-05T00:28:32;20.60;99.90
19878;DHT22;10101;52.204;9.910;2022-08-05T00:30:59;20.60;99.90
19878;DHT22;10101;52.204;9.910;2022-08-05T00:33:27;20.60;99.90
19878;DHT22;10101;52.204;9.910;2022-08-05T00:35:54;20.60;99.90
19878;DHT22;10101;52.204;9.910;2022-08-05T00:38:21;20.50;99.90
19878;DHT22;10101;52.204;9.910;2022-08-05T00:40:49;20.40;99.90
19878;DHT22;10101;52.204;9.910;2022-08-05T00:43:16;20.40;99.90
19878;DHT22;10101;52.204;9.910;2022-08-05T00:45:44;20.40;99.90
19878;DHT22;10101;52.204;9.910;2022-08-05T00:48:14;20.20;99.90
19878;DHT22;10101;52.204;9.910;2022-08-05T00:50:48;20.10;99.90
19878;DHT22;10101;52.204;9.910;2022-08-05T00:53:16;20.00;99.90
19878;DHT22;10101;52.204;9.910;2022-08-05T00:55:43;19.90;99.90
19878;DHT22;10101;52.204;9.910;2022-08-05T00:58:11;19.90;99.90
19878;DHT22;10101;52.204;9.910;2022-08-05T01:00:39;19.80;99.90
19878;DHT22;10101;52.204;9.910;2022-08-05T01:03:06;19.80;99.90
19878;DHT22;10101;52.204;9.910;2022-08-05T01:05:32;19.70;99.90
19878;DHT22;10101;52.204;9.910;2022-08-05T01:08:01;19.60;99.90
19878;DHT22;10101;52.204;9.910;2022-08-05T01:10:30;19.70;99.90
19878;DHT22;10101;52.204;9.910;2022-08-05T01:13:05;19.60;99.90
19878;DHT22;10101;52.204;9.910;2022-08-05T01:15:38;19.60;99.90
19878;DHT22;10101;52.204;9.910;2022-08-05T01:18:13;19.60;99.90
19878;DHT22;10101;52.204;9.910;2022-08-05T01:20:49;19.40;99.90
19878;DHT22;10101;52.204;9.910;2022-08-05T01:23:27;19.40;99.90
19878;DHT22;10101;52.204;9.910;2022-08-05T01:26:28;19.40;99.90
19878;DHT22;10101;52.204;9.910;2022-08-05T01:29:02;19.40;99.90
19878;DHT22;10101;52.204;9.910;2022-08-05T01:31:35;19.30;99.90
19878;DHT22;10101;52.204;9.910;2022-08-05T01:34:08;19.20;99.90
19878;DHT22;10101;52.204;9.910;2022-08-05T01:36:40;19.10;99.90
19878;DHT22;10101;52.204;9.910;2022-08-05T01:39:09;19.10;99.90
19878;DHT22;10101;52.204;9.910;2022-08-05T01:41:37;19.10;99.90
19878;DHT22;10101;52.204;9.910;2022-08-05T01:44:07;18.90;99.90
19878;DHT22;10101;52.204;9.910;2022-08-05T01:46:35;19.00;99.90
19878;DHT22;10101;52.204;9.910;2022-08-05T01:49:02;19.00;99.90
19878;DHT22;10101;52.204;9.910;2022-08-05T01:51:32;18.90;99.90
19878;DHT22;10101;52.204;9.910;2022-08-05T01:54:02;18.90;99.90
19878;DHT22;10101;52.204;9.910;2022-08-05T01:56:33;18.90;99.90
19878;DHT22;10101;52.204;9.910;2022-08-05T01:59:07;19.10;99.90
19878;DHT22;10101;52.204;9.910;2022-08-05T02:01:35;18.90;99.90
19878;DHT22;10101;52.204;9.910;2022-08-05T02:04:04;19.00;99.90
19878;DHT22;10101;52.204;9.910;2022-08-05T02:06:32;18.90;99.90
19878;DHT22;10101;52.204;9.910;2022-08-05T02:08:59;19.00;99.90
19878;DHT22;10101;52.204;9.910;2022-08-05T02:11:35;19.10;99.90
19878;DHT22;10101;52.204;9.910;2022-08-05T02:14:10;19.00;99.90
19878;DHT22;10101;52.204;9.910;2022-08-05T02:16:43;18.90;99.90
19878;DHT22;10101;52.204;9.910;2022-08-05T02:19:16;18.90;99.90
19878;DHT22;10101;52.204;9.910;2022-08-05T02:21:48;18.90;99.90
19878;DHT22;10101;52.204;9.910;2022-08-05T02:24:20;18.90;99.90
19878;DHT22;10101;52.204;9.910;2022-08-05T02:26:51;18.90;99.90
19878;DHT22;10101;52.204;9.910;2022-08-05T02:29:23;18.90;99.90
19878;DHT22;10101;52.204;9.910;2022-08-05T02:31:53;19.00;99.90
19878;DHT22;10101;52.204;9.910;2022-08-05T02:34:24;19.00;99.90
19878;DHT22;10101;52.204;9.910;2022-08-05T02:36:56;19.10;99.90
19878;DHT22;10101;52.204;9.910;2022-08-05T02:39:26;19.00;99.90
19878;DHT22;10101;52.204;9.910;2022-08-05T02:41:55;19.00;99.90
19878;DHT22;10101;52.204;9.910;2022-08-05T02:44:25;19.10;99.90
19878;DHT22;10101;52.204;9.910;2022-08-05T02:46:54;19.00;99.90
19878;DHT22;10101;52.204;9.910;2022-08-05T02:49:22;18.90;99.90
19878;DHT22;10101;52.204;9.910;2022-08-05T02:51:50;18.80;99.90
19878;DHT22;10101;52.204;9.910;2022-08-05T02:54:17;18.90;99.90
19878;DHT22;10101;52.204;9.910;2022-08-05T02:56:46;19.00;99.90
19878;DHT22;10101;52.204;9.910;2022-08-05T02:59:15;18.90;99.90
19878;DHT22;10101;52.204;9.910;2022-08-05T03:01:44;19.00;99.90
19878;DHT22;10101;52.204;9.910;2022-08-05T03:04:16;19.00;99.90
19878;DHT22;10101;52.204;9.910;2022-08-05T03:06:43;19.10;99.90
19878;DHT22;10101;52.204;9.910;2022-08-05T03:09:11;19.10;99.90
19878;DHT22;10101;52.204;9.910;2022-08-05T03:11:41;19.10;99.90
19878;DHT22;10101;52.204;9.910;2022-08-05T03:14:08;19.00;99.90
19878;DHT22;10101;52.204;9.910;2022-08-05T03:16:35;19.00;99.90
19878;DHT22;10101;52.204;9.910;2022-08-05T03:19:04;18.90;99.90
19878;DHT22;10101;52.204;9.910;2022-08-05T03:21:31;18.90;99.90
19878;DHT22;10101;52.204;9.910;2022-08-05T03:23:58;18.90;99.90
19878;DHT22;10101;52.204;9.910;2022-08-05T03:26:26;18.80;99.90
19878;DHT22;10101;52.204;9.910;2022-08-05T03:28:53;18.80;99.90
19878;DHT22;10101;52.204;9.910;2022-08-05T03:31:20;18.80;99.90
19878;DHT22;10101;52.204;9.910;2022-08-05T03:33:48;18.70;99.90
19878;DHT22;10101;52.204;9.910;2022-08-05T03:36:16;18.80;99.90
19878;DHT22;10101;52.204;9.910;2022-08-05T03:38:43;18.80;99.90
19878;DHT22;10101;52.204;9.910;2022-08-05T03:41:10;18.90;99.90
19878;DHT22;10101;52.204;9.910;2022-08-05T03:43:36;18.80;99.90
19878;DHT22;10101;52.204;9.910;2022-08-05T03:46:04;18.80;99.90
19878;DHT22;10101;52.204;9.910;2022-08-05T03:48:30;18.90;99.90
19878;DHT22;10101;52.204;9.910;2022-08-05T03:51:03;18.90;99.90
19878;DHT22;10101;52.204;9.910;2022-08-05T03:53:38;18.80;99.90
19878;DHT22;10101;52.204;9.910;2022-08-05T03:56:11;18.80;99.90
19878;DHT22;10101;52.204;9.910;2022-08-05T03:58:44;18.80;99.90
19878;DHT22;10101;52.204;9.910;2022-08-05T04:01:13;18.80;99.90
19878;DHT22;10101;52.204;9.910;2022-08-05T04:03:43;18.90;99.90
19878;DHT22;10101;52.204;9.910;2022-08-05T04:06:11;18.90;99.90
19878;DHT22;10101;52.204;9.910;2022-08-05T04:08:40;18.80;99.90
19878;DHT22;10101;52.204;9.910;2022-08-05T04:11:08;18.80;99.90
19878;DHT22;10101;52.204;9.910;2022-08-05T04:13:38;18.70;99.90
19878;DHT22;10101;52.204;9.910;2022-08-05T04:16:06;18.90;99.90
19878;DHT22;10101;52.204;9.910;2022-08-05T04:18:34;18.90;99.90
19878;DHT22;10101;52.204;9.910;2022-08-05T04:21:01;18.90;99.90
19878;DHT22;10101;52.204;9.910;2022-08-05T04:23:28;18.80;99.90
19878;DHT22;10101;52.204;9.910;2022-08-05T04:25:57;18.90;99.90
19878;DHT22;10101;52.204;9.910;2022-08-05T04:28:23;18.90;99.90
19878;DHT22;10101;52.204;9.910;2022-08-05T04:30:50;18.90;99.90
19878;DHT22;10101;52.204;9.910;2022-08-05T04:33:17;18.80;99.90
19878;DHT22;10101;52.204;9.910;2022-08-05T04:35:44;18.90;99.90
19878;DHT22;10101;52.204;9.910;2022-08-05T04:38:10;18.70;99.90
19878;DHT22;10101;52.204;9.910;2022-08-05T04:40:39;18.80;99.90
19878;DHT22;10101;52.204;9.910;2022-08-05T04:43:08;18.80;99.90
19878;DHT22;10101;52.204;9.910;2022-08-05T04:45:35;18.70;99.90
19878;DHT22;10101;52.204;9.910;2022-08-05T04:48:05;18.70;99.90
19878;DHT22;10101;52.204;9.910;2022-08-05T04:50:38;18.70;99.90
19878;DHT22;10101;52.204;9.910;2022-08-05T04:53:06;18.60;99.90
19878;DHT22;10101;52.204;9.910;2022-08-05T04:55:33;18.70;99.90
19878;DHT22;10101;52.204;9.910;2022-08-05T04:57:59;18.80;99.90
19878;DHT22;10101;52.204;9.910;2022-08-05T05:00:27;18.80;99.90
19878;DHT22;10101;52.204;9.910;2022-08-05T05:02:54;18.80;99.90
19878;DHT22;10101;52.204;9.910;2022-08-05T05:05:21;18.80;99.90
19878;DHT22;10101;52.204;9.910;2022-08-05T05:07:48;18.80;99.90
19878;DHT22;10101;52.204;9.910;2022-08-05T05:10:15;18.80;99.90
19878;DHT22;10101;52.204;9.910;2022-08-05T05:12:42;18.90;99.90
19878;DHT22;10101;52.204;9.910;2022-08-05T05:15:09;18.90;99.90
19878;DHT22;10101;52.204;9.910;2022-08-05T05:17:39;18.90;99.90
19878;DHT22;10101;52.204;9.910;2022-08-05T05:20:07;18.90;99.90
19878;DHT22;10101;52.204;9.910;2022-08-05T05:22:34;19.00;99.90
19878;DHT22;10101;52.204;9.910;2022-08-05T05:25:01;19.00;99.90
19878;DHT22;10101;52.204;9.910;2022-08-05T05:27:30;19.10;99.90
19878;DHT22;10101;52.204;9.910;2022-08-05T05:29:57;19.10;99.90
19878;DHT22;10101;52.204;9.910;2022-08-05T05:32:24;19.00;99.90
19878;DHT22;10101;52.204;9.910;2022-08-05T05:34:52;18.90;99.90
19878;DHT22;10101;52.204;9.910;2022-08-05T05:37:19;18.90;99.90
19878;DHT22;10101;52.204;9.910;2022-08-05T05:39:46;19.00;99.90
19878;DHT22;10101;52.204;9.910;2022-08-05T05:42:13;19.00;99.90
19878;DHT22;10101;52.204;9.910;2022-08-05T05:44:40;19.10;99.90
19878;DHT22;10101;52.204;9.910;2022-08-05T05:47:06;19.10;99.90
19878;DHT22;10101;52.204;9.910;2022-08-05T05:49:33;19.40;99.90
19878;DHT22;10101;52.204;9.910;2022-08-05T05:52:02;19.40;99.90
19878;DHT22;10101;52.204;9.910;2022-08-05T05:54:28;19.50;99.90
19878;DHT22;10101;52.204;9.910;2022-08-05T05:56:55;19.40;99.90
19878;DHT22;10101;52.204;9.910;2022-08-05T05:59:22;19.40;99.90
19878;DHT22;10101;52.204;9.910;2022-08-05T06:01:49;19.20;99.90
19878;DHT22;10101;52.204;9.910;2022-08-05T06:04:16;19.20;99.90
19878;DHT22;10101;52.204;9.910;2022-08-05T06:06:44;19.10;99.90
19878;DHT22;10101;52.204;9.910;2022-08-05T06:09:12;19.10;99.90
19878;DHT22;10101;52.204;9.910;2022-08-05T06:11:39;19.00;99.90
19878;DHT22;10101;52.204;9.910;2022-08-05T06:14:05;18.80;99.90
19878;DHT22;10101;52.204;9.910;2022-08-05T06:16:32;18.80;99.90
19878;DHT22;10101;52.204;9.910;2022-08-05T06:18:59;18.80;99.90
19878;DHT22;10101;52.204;9.910;2022-08-05T06:21:26;18.50;99.90
19878;DHT22;10101;52.204;9.910;2022-08-05T06:23:53;18.50;99.90
19878;DHT22;10101;52.204;9.910;2022-08-05T06:26:21;18.40;99.90
19878;DHT22;10101;52.204;9.910;2022-08-05T06:28:48;18.30;99.90
19878;DHT22;10101;52.204;9.910;2022-08-05T06:31:14;18.40;99.90
19878;DHT22;10101;52.204;9.910;2022-08-05T06:33:41;18.30;99.90
19878;DHT22;10101;52.204;9.910;2022-08-05T06:36:08;18.20;99.90
19878;DHT22;10101;52.204;9.910;2022-08-05T06:38:35;18.30;99.90
19878;DHT22;10101;52.204;9.910;2022-08-05T06:41:02;18.30;99.90
19878;DHT22;10101;52.204;9.910;2022-08-05T06:43:30;18.40;99.90
19878;DHT22;10101;52.204;9.910;2022-08-05T06:45:57;18.50;99.90
19878;DHT22;10101;52.204;9.910;2022-08-05T06:48:24;18.50;99.90
19878;DHT22;10101;52.204;9.910;2022-08-05T06:50:50;18.50;99.90
19878;DHT22;10101;52.204;9.910;2022-08-05T06:53:17;18.60;99.90
19878;DHT22;10101;52.204;9.910;2022-08-05T06:55:44;18.50;99.90
19878;DHT22;10101;52.204;9.910;2022-08-05T06:58:10;18.60;99.90
19878;DHT22;10101;52.204;9.910;2022-08-05T07:00:39;18.70;99.90
19878;DHT22;10101;52.204;9.910;2022-08-05T07:03:05;18.70;99.90
19878;DHT22;10101;52.204;9.910;2022-08-05T07:05:32;18.80;99.90
19878;DHT22;10101;52.204;9.910;2022-08-05T07:07:59;18.80;99.90
19878;DHT22;10101;52.204;9.910;2022-08-05T07:10:25;18.90;99.90
19878;DHT22;10101;52.204;9.910;2022-08-05T07:12:52;19.00;99.90
19878;DHT22;10101;52.204;9.910;2022-08-05T07:15:39;18.90;99.90
19878;DHT22;10101;52.204;9.910;2022-08-05T07:18:23;18.80;99.90
19878;DHT22;10101;52.204;9.910;2022-08-05T07:20:50;18.70;99.90
19878;DHT22;10101;52.204;9.910;2022-08-05T07:23:17;18.70;99.90
19878;DHT22;10101;52.204;9.910;2022-08-05T07:25:44;18.80;99.90
19878;DHT22;10101;52.204;9.910;2022-08-05T07:28:11;19.00;99.90
19878;DHT22;10101;52.204;9.910;2022-08-05T07:30:39;19.40;99.90
19878;DHT22;10101;52.204;9.910;2022-08-05T07:33:07;19.60;99.90
19878;DHT22;10101;52.204;9.910;2022-08-05T07:35:35;19.70;99.90
19878;DHT22;10101;52.204;9.910;2022-08-05T07:38:01;19.50;99.90
19878;DHT22;10101;52.204;9.910;2022-08-05T07:40:28;19.30;99.90
19878;DHT22;10101;52.204;9.910;2022-08-05T07:42:55;19.40;99.90
19878;DHT22;10101;52.204;9.910;2022-08-05T07:45:22;19.50;99.90
19878;DHT22;10101;52.204;9.910;2022-08-05T07:47:50;19.30;99.90
19878;DHT22;10101;52.204;9.910;2022-08-05T07:50:17;19.30;99.90
19878;DHT22;10101;52.204;9.910;2022-08-05T07:52:44;19.10;99.90
19878;DHT22;10101;52.204;9.910;2022-08-05T07:55:12;19.10;99.90
19878;DHT22;10101;52.204;9.910;2022-08-05T07:57:38;19.20;99.90
19878;DHT22;10101;52.204;9.910;2022-08-05T08:00:06;19.20;99.90
19878;DHT22;10101;52.204;9.910;2022-08-05T08:02:33;19.20;99.90
19878;DHT22;10101;52.204;9.910;2022-08-05T08:05:02;19.30;99.90
19878;DHT22;10101;52.204;9.910;2022-08-05T08:07:29;19.40;99.90
19878;DHT22;10101;52.204;9.910;2022-08-05T08:09:55;19.60;99.90
19878;DHT22;10101;52.204;9.910;2022-08-05T08:12:23;19.40;99.90
19878;DHT22;10101;52.204;9.910;2022-08-05T08:14:50;19.20;99.90
19878;DHT22;10101;52.204;9.910;2022-08-05T08:17:16;18.90;99.90
19878;DHT22;10101;52.204;9.910;2022-08-05T08:19:44;18.80;99.90
19878;DHT22;10101;52.204;9.910;2022-08-05T08:22:12;18.80;99.90
19878;DHT22;10101;52.204;9.910;2022-08-05T08:24:39;18.80;99.90
19878;DHT22;10101;52.204;9.910;2022-08-05T08:27:06;18.90;99.90
19878;DHT22;10101;52.204;9.910;2022-08-05T08:29:32;19.00;99.90
19878;DHT22;10101;52.204;9.910;2022-08-05T08:31:59;18.90;99.90
19878;DHT22;10101;52.204;9.910;2022-08-05T08:34:26;18.90;99.90
19878;DHT22;10101;52.204;9.910;2022-08-05T08:36:53;19.10;99.90
19878;DHT22;10101;52.204;9.910;2022-08-05T08:39:21;19.00;99.90
19878;DHT22;10101;52.204;9.910;2022-08-05T08:41:49;18.70;99.90
19878;DHT22;10101;52.204;9.910;2022-08-05T08:44:18;18.70;99.90
19878;DHT22;10101;52.204;9.910;2022-08-05T08:46:46;18.60;99.90
19878;DHT22;10101;52.204;9.910;2022-08-05T08:49:14;18.50;99.90
19878;DHT22;10101;52.204;9.910;2022-08-05T08:51:43;18.50;99.90
19878;DHT22;10101;52.204;9.910;2022-08-05T08:54:12;18.50;99.90
19878;DHT22;10101;52.204;9.910;2022-08-05T08:56:41;18.60;99.90
19878;DHT22;10101;52.204;9.910;2022-08-05T08:59:08;18.50;99.90
19878;DHT22;10101;52.204;9.910;2022-08-05T09:01:36;18.40;99.90
19878;DHT22;10101;52.204;9.910;2022-08-05T09:04:04;18.50;99.90
19878;DHT22;10101;52.204;9.910;2022-08-05T09:06:31;18.40;99.90
19878;DHT22;10101;52.204;9.910;2022-08-05T09:09:00;18.50;99.90
19878;DHT22;10101;52.204;9.910;2022-08-05T09:11:27;18.50;99.90
19878;DHT22;10101;52.204;9.910;2022-08-05T09:13:55;18.60;99.90
19878;DHT22;10101;52.204;9.910;2022-08-05T09:16:22;18.60;99.90
19878;DHT22;10101;52.204;9.910;2022-08-05T09:18:49;18.70;99.90
19878;DHT22;10101;52.204;9.910;2022-08-05T09:21:16;18.70;99.90
19878;DHT22;10101;52.204;9.910;2022-08-05T09:23:44;18.60;99.90
19878;DHT22;10101;52.204;9.910;2022-08-05T09:26:12;18.50;99.90
19878;DHT22;10101;52.204;9.910;2022-08-05T09:28:42;18.40;99.90
19878;DHT22;10101;52.204;9.910;2022-08-05T09:31:14;18.40;99.90
19878;DHT22;10101;52.204;9.910;2022-08-05T09:33:48;18.40;99.90
19878;DHT22;10101;52.204;9.910;2022-08-05T09:36:16;18.30;99.90
19878;DHT22;10101;52.204;9.910;2022-08-05T09:38:55;18.30;99.90
19878;DHT22;10101;52.204;9.910;2022-08-05T09:41:22;18.50;99.90
19878;DHT22;10101;52.204;9.910;2022-08-05T09:43:49;18.40;99.90
19878;DHT22;10101;52.204;9.910;2022-08-05T09:46:28;18.40;99.90
19878;DHT22;10101;52.204;9.910;2022-08-05T09:48:55;18.40;99.90
19878;DHT22;10101;52.204;9.910;2022-08-05T09:51:33;18.40;99.90
19878;DHT22;10101;52.204;9.910;2022-08-05T09:54:01;18.30;99.90
19878;DHT22;10101;52.204;9.910;2022-08-05T09:56:31;18.30;99.90
19878;DHT22;10101;52.204;9.910;2022-08-05T09:59:00;18.30;99.90
19878;DHT22;10101;52.204;9.910;2022-08-05T10:01:28;18.30;99.90
19878;DHT22;10101;52.204;9.910;2022-08-05T10:04:00;18.30;99.90
19878;DHT22;10101;52.204;9.910;2022-08-05T10:06:29;18.30;99.90
19878;DHT22;10101;52.204;9.910;2022-08-05T10:09:09;18.20;99.90
19878;DHT22;10101;52.204;9.910;2022-08-05T10:11:36;18.20;99.90
19878;DHT22;10101;52.204;9.910;2022-08-05T10:14:19;18.20;99.90
19878;DHT22;10101;52.204;9.910;2022-08-05T10:16:48;18.20;99.90
19878;DHT22;10101;52.204;9.910;2022-08-05T10:19:15;18.20;99.90
19878;DHT22;10101;52.204;9.910;2022-08-05T10:21:42;18.30;99.90
19878;DHT22;10101;52.204;9.910;2022-08-05T10:24:10;18.30;99.90
19878;DHT22;10101;52.204;9.910;2022-08-05T10:26:39;18.30;99.90
19878;DHT22;10101;52.204;9.910;2022-08-05T10:29:06;18.30;99.90
19878;DHT22;10101;52.204;9.910;2022-08-05T10:31:33;18.30;99.90
19878;DHT22;10101;52.204;9.910;2022-08-05T10:34:02;18.40;99.90
19878;DHT22;10101;52.204;9.910;2022-08-05T10:36:29;18.40;99.90
19878;DHT22;10101;52.204;9.910;2022-08-05T10:39:01;18.40;99.90
19878;DHT22;10101;52.204;9.910;2022-08-05T10:41:33;18.40;99.90
19878;DHT22;10101;52.204;9.910;2022-08-05T10:44:04;18.50;99.90
19878;DHT22;10101;52.204;9.910;2022-08-05T10:46:46;18.50;99.90
19878;DHT22;10101;52.204;9.910;2022-08-05T10:49:16;18.50;99.90
19878;DHT22;10101;52.204;9.910;2022-08-05T10:51:44;18.40;99.90
19878;DHT22;10101;52.204;9.910;2022-08-05T10:54:12;18.30;99.90
19878;DHT22;10101;52.204;9.910;2022-08-05T10:56:44;18.20;99.90
19878;DHT22;10101;52.204;9.910;2022-08-05T10:59:16;18.40;99.90
19878;DHT22;10101;52.204;9.910;2022-08-05T11:01:44;18.20;99.90
19878;DHT22;10101;52.204;9.910;2022-08-05T11:04:13;18.30;99.90
19878;DHT22;10101;52.204;9.910;2022-08-05T11:07:04;18.20;99.90
19878;DHT22;10101;52.204;9.910;2022-08-05T11:09:42;18.10;99.90
19878;DHT22;10101;52.204;9.910;2022-08-05T11:12:41;18.10;99.90
19878;DHT22;10101;52.204;9.910;2022-08-05T11:15:15;18.00;99.90
19878;DHT22;10101;52.204;9.910;2022-08-05T11:17:44;17.80;99.90
19878;DHT22;10101;52.204;9.910;2022-08-05T11:20:39;17.80;99.90
19878;DHT22;10101;52.204;9.910;2022-08-05T11:23:26;17.70;99.90
19878;DHT22;10101;52.204;9.910;2022-08-05T11:26:04;17.60;99.90
19878;DHT22;10101;52.204;9.910;2022-08-05T11:28:43;17.60;99.90
19878;DHT22;10101;52.204;9.910;2022-08-05T11:31:34;17.60;99.90
19878;DHT22;10101;52.204;9.910;2022-08-05T11:34:06;17.60;99.90
19878;DHT22;10101;52.204;9.910;2022-08-05T11:36:47;17.80;99.90
19878;DHT22;10101;52.204;9.910;2022-08-05T11:39:47;17.60;99.90
19878;DHT22;10101;52.204;9.910;2022-08-05T11:42:16;17.70;99.90
19878;DHT22;10101;52.204;9.910;2022-08-05T11:44:49;17.70;99.90
19878;DHT22;10101;52.204;9.910;2022-08-05T11:47:20;17.80;99.90
19878;DHT22;10101;52.204;9.910;2022-08-05T11:49:47;17.80;99.90
19878;DHT22;10101;52.204;9.910;2022-08-05T11:52:22;17.80;99.90
19878;DHT22;10101;52.204;9.910;2022-08-05T11:54:51;17.80;99.90
19878;DHT22;10101;52.204;9.910;2022-08-05T11:57:19;17.90;99.90
19878;DHT22;10101;52.204;9.910;2022-08-05T11:59:46;17.90;99.90
19878;DHT22;10101;52.204;9.910;2022-08-05T12:02:13;18.00;99.90
19878;DHT22;10101;52.204;9.910;2022-08-05T12:04:42;18.00;99.90
19878;DHT22;10101;52.204;9.910;2022-08-05T12:07:10;18.10;99.90
19878;DHT22;10101;52.204;9.910;2022-08-05T12:09:40;18.10;99.90
19878;DHT22;10101;52.204;9.910;2022-08-05T12:12:09;18.20;99.90
19878;DHT22;10101;52.204;9.910;2022-08-05T12:14:37;18.10;99.90
19878;DHT22;10101;52.204;9.910;2022-08-05T12:17:08;18.20;99.90
19878;DHT22;10101;52.204;9.910;2022-08-05T12:19:43;18.20;99.90
19878;DHT22;10101;52.204;9.910;2022-08-05T12:22:10;18.10;99.90
19878;DHT22;10101;52.204;9.910;2022-08-05T12:24:42;18.10;99.90
19878;DHT22;10101;52.204;9.910;2022-08-05T12:27:18;18.20;99.90
19878;DHT22;10101;52.204;9.910;2022-08-05T12:29:45;18.10;99.90
19878;DHT22;10101;52.204;9.910;2022-08-05T12:32:11;18.10;99.90
19878;DHT22;10101;52.204;9.910;2022-08-05T12:34:38;18.30;99.90
19878;DHT22;10101;52.204;9.910;2022-08-05T12:37:07;18.40;99.90
19878;DHT22;10101;52.204;9.910;2022-08-05T12:39:37;18.40;99.90
19878;DHT22;10101;52.204;9.910;2022-08-05T12:42:10;18.40;99.90
19878;DHT22;10101;52.204;9.910;2022-08-05T12:44:36;18.50;99.90
19878;DHT22;10101;52.204;9.910;2022-08-05T12:47:04;18.50;99.90
19878;DHT22;10101;52.204;9.910;2022-08-05T12:49:41;18.30;99.90
19878;DHT22;10101;52.204;9.910;2022-08-05T12:52:13;18.30;99.90
19878;DHT22;10101;52.204;9.910;2022-08-05T12:54:40;18.20;99.90
19878;DHT22;10101;52.204;9.910;2022-08-05T12:57:10;18.10;99.90
19878;DHT22;10101;52.204;9.910;2022-08-05T12:59:45;17.90;99.90
19878;DHT22;10101;52.204;9.910;2022-08-05T13:02:15;17.80;99.90
19878;DHT22;10101;52.204;9.910;2022-08-05T13:04:43;17.80;99.90
19878;DHT22;10101;52.204;9.910;2022-08-05T13:07:12;17.90;99.90
19878;DHT22;10101;52.204;9.910;2022-08-05T13:09:41;18.10;99.90
19878;DHT22;10101;52.204;9.910;2022-08-05T13:12:11;18.10;99.90
19878;DHT22;10101;52.204;9.910;2022-08-05T13:14:39;18.20;99.90
19878;DHT22;10101;52.204;9.910;2022-08-05T13:17:08;18.40;99.90
19878;DHT22;10101;52.204;9.910;2022-08-05T13:19:36;18.40;99.90
19878;DHT22;10101;52.204;9.910;2022-08-05T13:22:04;18.30;99.90
19878;DHT22;10101;52.204;9.910;2022-08-05T13:24:30;18.30;99.90
19878;DHT22;10101;52.204;9.910;2022-08-05T13:26:57;18.30;99.90
19878;DHT22;10101;52.204;9.910;2022-08-05T13:29:25;18.50;99.90
19878;DHT22;10101;52.204;9.910;2022-08-05T13:31:53;18.40;99.90
19878;DHT22;10101;52.204;9.910;2022-08-05T13:34:22;18.50;99.90
19878;DHT22;10101;52.204;9.910;2022-08-05T13:36:49;18.50;99.90
19878;DHT22;10101;52.204;9.910;2022-08-05T13:39:16;18.40;99.90
19878;DHT22;10101;52.204;9.910;2022-08-05T13:41:42;18.40;99.90
19878;DHT22;10101;52.204;9.910;2022-08-05T13:44:09;18.40;99.90
19878;DHT22;10101;52.204;9.910;2022-08-05T13:46:37;18.40;99.90
19878;DHT22;10101;52.204;9.910;2022-08-05T13:49:04;18.40;99.90
19878;DHT22;10101;52.204;9.910;2022-08-05T13:51:32;18.20;99.90
19878;DHT22;10101;52.204;9.910;2022-08-05T13:53:59;18.20;99.90
19878;DHT22;10101;52.204;9.910;2022-08-05T13:56:25;18.30;99.90
19878;DHT22;10101;52.204;9.910;2022-08-05T13:58:52;18.30;99.90
19878;DHT22;10101;52.204;9.910;2022-08-05T14:01:20;18.30;99.90
19878;DHT22;10101;52.204;9.910;2022-08-05T14:03:48;18.30;99.90
19878;DHT22;10101;52.204;9.910;2022-08-05T14:06:29;18.20;99.90
19878;DHT22;10101;52.204;9.910;2022-08-05T14:08:56;18.20;99.90
19878;DHT22;10101;52.204;9.910;2022-08-05T14:11:23;18.20;99.90
19878;DHT22;10101;52.204;9.910;2022-08-05T14:13:50;18.30;99.90
19878;DHT22;10101;52.204;9.910;2022-08-05T14:16:17;18.40;99.90
19878;DHT22;10101;52.204;9.910;2022-08-05T14:18:43;18.40;99.90
19878;DHT22;10101;52.204;9.910;2022-08-05T14:21:12;18.30;99.90
19878;DHT22;10101;52.204;9.910;2022-08-05T14:23:38;18.70;99.90
19878;DHT22;10101;52.204;9.910;2022-08-05T14:26:05;18.50;99.90
19878;DHT22;10101;52.204;9.910;2022-08-05T14:28:32;18.50;99.90
19878;DHT22;10101;52.204;9.910;2022-08-05T14:30:59;18.50;99.90
19878;DHT22;10101;52.204;9.910;2022-08-05T14:33:25;18.50;99.90
19878;DHT22;10101;52.204;9.910;2022-08-05T14:35:52;18.60;99.90
19878;DHT22;10101;52.204;9.910;2022-08-05T14:38:20;18.70;99.90
19878;DHT22;10101;52.204;9.910;2022-08-05T14:40:47;18.90;99.90
19878;DHT22;10101;52.204;9.910;2022-08-05T14:43:14;19.00;99.90
19878;DHT22;10101;52.204;9.910;2022-08-05T14:45:41;18.90;99.90
19878;DHT22;10101;52.204;9.910;2022-08-05T14:48:07;19.00;99.90
19878;DHT22;10101;52.204;9.910;2022-08-05T14:50:34;19.20;99.90
19878;DHT22;10101;52.204;9.910;2022-08-05T14:53:01;19.20;99.90
19878;DHT22;10101;52.204;9.910;2022-08-05T14:55:29;19.30;99.90
19878;DHT22;10101;52.204;9.910;2022-08-05T14:57:56;19.30;99.90
19878;DHT22;10101;52.204;9.910;2022-08-05T15:00:23;19.40;99.90
19878;DHT22;10101;52.204;9.910;2022-08-05T15:02:49;19.80;99.90
19878;DHT22;10101;52.204;9.910;2022-08-05T15:05:16;20.10;99.90
19878;DHT22;10101;52.204;9.910;2022-08-05T15:07:43;19.80;99.90
19878;DHT22;10101;52.204;9.910;2022-08-05T15:10:10;19.80;99.90
19878;DHT22;10101;52.204;9.910;2022-08-05T15:12:38;19.70;99.90
19878;DHT22;10101;52.204;9.910;2022-08-05T15:15:06;19.50;99.90
19878;DHT22;10101;52.204;9.910;2022-08-05T15:17:32;19.70;99.90
19878;DHT22;10101;52.204;9.910;2022-08-05T15:19:59;19.60;99.90
19878;DHT22;10101;52.204;9.910;2022-08-05T15:22:26;20.00;99.90
19878;DHT22;10101;52.204;9.910;2022-08-05T15:24:53;19.40;99.90
19878;DHT22;10101;52.204;9.910;2022-08-05T15:27:19;19.30;99.90
19878;DHT22;10101;52.204;9.910;2022-08-05T15:29:47;19.20;99.90
19878;DHT22;10101;52.204;9.910;2022-08-05T15:32:14;19.10;99.90
19878;DHT22;10101;52.204;9.910;2022-08-05T15:34:41;19.20;99.90
19878;DHT22;10101;52.204;9.910;2022-08-05T15:37:08;19.20;99.90
19878;DHT22;10101;52.204;9.910;2022-08-05T15:39:34;19.00;99.90
19878;DHT22;10101;52.204;9.910;2022-08-05T15:42:01;19.10;99.90